sensor_id;sensor_type;location;lat;lon;timestamp;P1;durP1;ratioP1;P2;durP2;ratioP2
38805;SDS011;25635;51.146;17.162;2023-01-20T00:01:18;166.70;;;72.40;;
38805;SDS011;25635;51.146;17.162;2023-01-20T00:03:45;154.10;;;71.80;;
38805;SDS011;25635;51.146;17.162;2023-01-20T00:06:13;166.10;;;74.90;;
38805;SDS011;25635;51.146;17.162;2023-01-20T00:08:40;149.30;;;70.70;;
38805;SDS011;25635;51.146;17.162;2023-01-20T00:11:07;154.10;;;70.40;;
38805;SDS011;25635;51.146;17.162;2023-01-20T00:13:36;153.60;;;67.80;;
38805;SDS011;25635;51.146;17.162;2023-01-20T00:16:08;144.40;;;70.10;;
38805;SDS011;25635;51.146;17.162;2023-01-20T00:18:36;157.60;;;73.40;;
38805;SDS011;25635;51.146;17.162;2023-01-20T00:21:05;151.00;;;70.40;;
38805;SDS011;25635;51.146;17.162;2023-01-20T00:23:34;147.90;;;68.00;;
38805;SDS011;25635;51.146;17.162;2023-01-20T00:26:04;136.20;;;64.60;;
38805;SDS011;25635;51.146;17.162;2023-01-20T00:28:32;135.40;;;63.40;;
38805;SDS011;25635;51.146;17.162;2023-01-20T00:33:47;128.60;;;59.90;;
38805;SDS011;25635;51.146;17.162;2023-01-20T00:36:16;126.60;;;60.20;;
38805;SDS011;25635;51.146;17.162;2023-01-20T00:38:43;129.70;;;58.40;;
38805;SDS011;25635;51.146;17.162;2023-01-20T00:41:11;122.90;;;57.50;;
38805;SDS011;25635;51.146;17.162;2023-01-20T00:43:38;123.50;;;59.80;;
38805;SDS011;25635;51.146;17.162;2023-01-20T00:46:05;131.60;;;62.30;;
38805;SDS011;25635;51.146;17.162;2023-01-20T00:48:32;131.40;;;63.40;;
38805;SDS011;25635;51.146;17.162;2023-01-20T00:51:00;121.50;;;61.40;;
38805;SDS011;25635;51.146;17.162;2023-01-20T00:53:27;120.10;;;62.70;;
38805;SDS011;25635;51.146;17.162;2023-01-20T00:55:54;129.10;;;62.00;;
38805;SDS011;25635;51.146;17.162;2023-01-20T00:58:20;130.70;;;62.30;;
38805;SDS011;25635;51.146;17.162;2023-01-20T01:00:48;127.00;;;60.00;;
38805;SDS011;25635;51.146;17.162;2023-01-20T01:03:16;133.30;;;64.00;;
38805;SDS011;25635;51.146;17.162;2023-01-20T01:05:43;125.20;;;61.00;;
38805;SDS011;25635;51.146;17.162;2023-01-20T01:08:11;125.20;;;60.40;;
38805;SDS011;25635;51.146;17.162;2023-01-20T01:10:39;127.80;;;58.60;;
38805;SDS011;25635;51.146;17.162;2023-01-20T01:13:06;115.20;;;55.30;;
38805;SDS011;25635;51.146;17.162;2023-01-20T01:15:33;117.10;;;55.20;;
38805;SDS011;25635;51.146;17.162;2023-01-20T01:18:00;125.80;;;59.30;;
38805;SDS011;25635;51.146;17.162;2023-01-20T01:20:27;120.10;;;59.10;;
38805;SDS011;25635;51.146;17.162;2023-01-20T01:22:54;116.00;;;58.00;;
38805;SDS011;25635;51.146;17.162;2023-01-20T01:25:21;126.60;;;61.30;;
38805;SDS011;25635;51.146;17.162;2023-01-20T01:27:48;122.40;;;59.60;;
38805;SDS011;25635;51.146;17.162;2023-01-20T01:30:15;130.40;;;62.30;;
38805;SDS011;25635;51.146;17.162;2023-01-20T01:32:42;125.30;;;58.40;;
38805;SDS011;25635;51.146;17.162;2023-01-20T01:35:08;111.40;;;55.10;;
38805;SDS011;25635;51.146;17.162;2023-01-20T01:37:35;115.70;;;56.70;;
38805;SDS011;25635;51.146;17.162;2023-01-20T01:40:02;122.70;;;57.40;;
38805;SDS011;25635;51.146;17.162;2023-01-20T01:42:29;118.00;;;57.80;;
38805;SDS011;25635;51.146;17.162;2023-01-20T01:47:39;124.40;;;58.10;;
38805;SDS011;25635;51.146;17.162;2023-01-20T01:50:11;118.00;;;57.00;;
38805;SDS011;25635;51.146;17.162;2023-01-20T01:52:43;120.90;;;55.20;;
38805;SDS011;25635;51.146;17.162;2023-01-20T01:55:12;116.00;;;56.90;;
38805;SDS011;25635;51.146;17.162;2023-01-20T01:57:40;122.90;;;57.70;;
38805;SDS011;25635;51.146;17.162;2023-01-20T02:00:07;122.60;;;59.10;;
38805;SDS011;25635;51.146;17.162;2023-01-20T02:02:35;125.10;;;58.60;;
38805;SDS011;25635;51.146;17.162;2023-01-20T02:05:02;113.80;;;54.80;;
38805;SDS011;25635;51.146;17.162;2023-01-20T02:07:28;117.90;;;57.00;;
38805;SDS011;25635;51.146;17.162;2023-01-20T02:09:57;122.40;;;58.40;;
38805;SDS011;25635;51.146;17.162;2023-01-20T02:12:25;123.80;;;59.70;;
38805;SDS011;25635;51.146;17.162;2023-01-20T02:14:53;125.70;;;58.10;;
38805;SDS011;25635;51.146;17.162;2023-01-20T02:23:10;128.40;;;58.60;;
38805;SDS011;25635;51.146;17.162;2023-01-20T02:31:18;113.50;;;52.40;;
38805;SDS011;25635;51.146;17.162;2023-01-20T02:33:59;118.80;;;54.10;;
38805;SDS011;25635;51.146;17.162;2023-01-20T02:36:52;121.40;;;57.80;;
38805;SDS011;25635;51.146;17.162;2023-01-20T02:39:27;126.30;;;58.20;;
38805;SDS011;25635;51.146;17.162;2023-01-20T02:50:00;115.30;;;53.60;;
38805;SDS011;25635;51.146;17.162;2023-01-20T02:52:51;114.90;;;53.00;;
38805;SDS011;25635;51.146;17.162;2023-01-20T02:58:03;121.00;;;55.50;;
38805;SDS011;25635;51.146;17.162;2023-01-20T03:00:49;113.60;;;54.30;;
38805;SDS011;25635;51.146;17.162;2023-01-20T03:03:22;119.50;;;53.60;;
38805;SDS011;25635;51.146;17.162;2023-01-20T03:05:54;111.00;;;52.40;;
38805;SDS011;25635;51.146;17.162;2023-01-20T03:08:26;110.00;;;51.20;;
38805;SDS011;25635;51.146;17.162;2023-01-20T03:10:56;102.80;;;51.20;;
38805;SDS011;25635;51.146;17.162;2023-01-20T03:13:37;116.90;;;54.60;;
38805;SDS011;25635;51.146;17.162;2023-01-20T03:16:13;122.50;;;57.30;;
38805;SDS011;25635;51.146;17.162;2023-01-20T03:18:42;112.90;;;54.40;;
38805;SDS011;25635;51.146;17.162;2023-01-20T03:21:10;109.40;;;54.60;;
38805;SDS011;25635;51.146;17.162;2023-01-20T03:23:42;120.30;;;54.80;;
38805;SDS011;25635;51.146;17.162;2023-01-20T03:26:13;119.50;;;55.60;;
38805;SDS011;25635;51.146;17.162;2023-01-20T03:28:41;124.00;;;55.40;;
38805;SDS011;25635;51.146;17.162;2023-01-20T03:31:19;117.80;;;56.30;;
38805;SDS011;25635;51.146;17.162;2023-01-20T03:33:52;116.00;;;56.70;;
38805;SDS011;25635;51.146;17.162;2023-01-20T03:36:22;112.10;;;52.70;;
38805;SDS011;25635;51.146;17.162;2023-01-20T03:38:50;112.30;;;51.70;;
38805;SDS011;25635;51.146;17.162;2023-01-20T03:41:43;117.60;;;55.90;;
38805;SDS011;25635;51.146;17.162;2023-01-20T03:47:32;98.70;;;51.30;;
38805;SDS011;25635;51.146;17.162;2023-01-20T03:50:26;118.60;;;54.50;;
38805;SDS011;25635;51.146;17.162;2023-01-20T03:53:02;119.70;;;59.40;;
38805;SDS011;25635;51.146;17.162;2023-01-20T03:55:33;135.00;;;67.00;;
38805;SDS011;25635;51.146;17.162;2023-01-20T03:58:05;127.40;;;65.40;;
38805;SDS011;25635;51.146;17.162;2023-01-20T04:00:36;133.40;;;63.80;;
38805;SDS011;25635;51.146;17.162;2023-01-20T04:03:12;125.10;;;62.00;;
38805;SDS011;25635;51.146;17.162;2023-01-20T04:08:10;127.30;;;58.40;;
38805;SDS011;25635;51.146;17.162;2023-01-20T04:10:40;131.40;;;62.10;;
38805;SDS011;25635;51.146;17.162;2023-01-20T04:13:10;117.90;;;57.20;;
38805;SDS011;25635;51.146;17.162;2023-01-20T04:15:38;118.50;;;58.10;;
38805;SDS011;25635;51.146;17.162;2023-01-20T04:18:14;118.70;;;53.50;;
38805;SDS011;25635;51.146;17.162;2023-01-20T04:20:46;114.30;;;50.50;;
38805;SDS011;25635;51.146;17.162;2023-01-20T04:23:16;103.70;;;51.70;;
38805;SDS011;25635;51.146;17.162;2023-01-20T04:25:49;108.30;;;51.40;;
38805;SDS011;25635;51.146;17.162;2023-01-20T04:28:16;112.10;;;55.80;;
38805;SDS011;25635;51.146;17.162;2023-01-20T04:30:42;112.70;;;54.60;;
38805;SDS011;25635;51.146;17.162;2023-01-20T04:33:09;102.40;;;52.60;;
38805;SDS011;25635;51.146;17.162;2023-01-20T04:35:36;106.80;;;53.40;;
38805;SDS011;25635;51.146;17.162;2023-01-20T04:38:02;118.80;;;57.30;;
38805;SDS011;25635;51.146;17.162;2023-01-20T04:40:29;120.00;;;59.00;;
38805;SDS011;25635;51.146;17.162;2023-01-20T04:42:56;123.50;;;57.70;;
38805;SDS011;25635;51.146;17.162;2023-01-20T04:45:23;111.60;;;55.90;;
38805;SDS011;25635;51.146;17.162;2023-01-20T04:47:50;116.60;;;58.40;;
38805;SDS011;25635;51.146;17.162;2023-01-20T04:50:16;120.60;;;57.00;;
38805;SDS011;25635;51.146;17.162;2023-01-20T04:52:43;109.10;;;54.40;;
38805;SDS011;25635;51.146;17.162;2023-01-20T04:55:10;110.40;;;52.40;;
38805;SDS011;25635;51.146;17.162;2023-01-20T04:57:37;105.00;;;51.60;;
38805;SDS011;25635;51.146;17.162;2023-01-20T05:00:04;98.80;;;49.30;;
38805;SDS011;25635;51.146;17.162;2023-01-20T05:02:32;105.10;;;51.30;;
38805;SDS011;25635;51.146;17.162;2023-01-20T05:04:59;112.00;;;56.30;;
38805;SDS011;25635;51.146;17.162;2023-01-20T05:07:25;121.90;;;57.90;;
38805;SDS011;25635;51.146;17.162;2023-01-20T05:09:52;116.00;;;55.90;;
38805;SDS011;25635;51.146;17.162;2023-01-20T05:12:19;110.90;;;56.30;;
38805;SDS011;25635;51.146;17.162;2023-01-20T05:14:45;115.50;;;55.20;;
38805;SDS011;25635;51.146;17.162;2023-01-20T05:17:12;119.60;;;57.90;;
38805;SDS011;25635;51.146;17.162;2023-01-20T05:19:39;121.90;;;59.10;;
38805;SDS011;25635;51.146;17.162;2023-01-20T05:22:06;136.30;;;60.20;;
38805;SDS011;25635;51.146;17.162;2023-01-20T05:24:32;135.10;;;59.30;;
38805;SDS011;25635;51.146;17.162;2023-01-20T05:26:59;140.70;;;63.30;;
38805;SDS011;25635;51.146;17.162;2023-01-20T05:29:27;168.50;;;67.40;;
38805;SDS011;25635;51.146;17.162;2023-01-20T05:31:54;184.90;;;69.50;;
38805;SDS011;25635;51.146;17.162;2023-01-20T05:34:21;174.10;;;65.20;;
38805;SDS011;25635;51.146;17.162;2023-01-20T05:36:51;156.30;;;62.10;;
38805;SDS011;25635;51.146;17.162;2023-01-20T05:39:19;158.70;;;61.30;;
38805;SDS011;25635;51.146;17.162;2023-01-20T05:41:47;150.70;;;65.70;;
38805;SDS011;25635;51.146;17.162;2023-01-20T05:44:14;143.50;;;62.60;;
38805;SDS011;25635;51.146;17.162;2023-01-20T05:46:45;146.10;;;62.90;;
38805;SDS011;25635;51.146;17.162;2023-01-20T05:49:12;151.40;;;64.50;;
38805;SDS011;25635;51.146;17.162;2023-01-20T05:51:39;145.00;;;63.30;;
38805;SDS011;25635;51.146;17.162;2023-01-20T05:54:59;133.40;;;58.90;;
38805;SDS011;25635;51.146;17.162;2023-01-20T05:58:19;131.70;;;58.40;;
38805;SDS011;25635;51.146;17.162;2023-01-20T06:01:40;123.60;;;55.50;;
38805;SDS011;25635;51.146;17.162;2023-01-20T06:05:07;131.00;;;58.80;;
38805;SDS011;25635;51.146;17.162;2023-01-20T06:08:28;135.40;;;58.70;;
38805;SDS011;25635;51.146;17.162;2023-01-20T06:11:50;122.70;;;54.60;;
38805;SDS011;25635;51.146;17.162;2023-01-20T06:15:10;119.00;;;54.30;;
38805;SDS011;25635;51.146;17.162;2023-01-20T06:18:31;104.80;;;48.60;;
38805;SDS011;25635;51.146;17.162;2023-01-20T06:21:50;107.70;;;52.90;;
38805;SDS011;25635;51.146;17.162;2023-01-20T06:25:11;101.90;;;51.80;;
38805;SDS011;25635;51.146;17.162;2023-01-20T06:28:31;110.70;;;54.80;;
38805;SDS011;25635;51.146;17.162;2023-01-20T06:31:51;109.00;;;55.50;;
38805;SDS011;25635;51.146;17.162;2023-01-20T06:34:18;120.60;;;57.40;;
38805;SDS011;25635;51.146;17.162;2023-01-20T06:36:45;119.20;;;59.30;;
38805;SDS011;25635;51.146;17.162;2023-01-20T06:39:11;115.20;;;58.30;;
38805;SDS011;25635;51.146;17.162;2023-01-20T06:41:38;113.40;;;57.40;;
38805;SDS011;25635;51.146;17.162;2023-01-20T06:44:04;113.40;;;57.10;;
38805;SDS011;25635;51.146;17.162;2023-01-20T06:46:31;115.90;;;57.00;;
38805;SDS011;25635;51.146;17.162;2023-01-20T06:48:58;115.40;;;59.30;;
38805;SDS011;25635;51.146;17.162;2023-01-20T06:51:28;116.50;;;59.80;;
38805;SDS011;25635;51.146;17.162;2023-01-20T06:53:56;114.00;;;58.50;;
38805;SDS011;25635;51.146;17.162;2023-01-20T06:56:23;120.50;;;64.20;;
38805;SDS011;25635;51.146;17.162;2023-01-20T06:58:50;124.40;;;65.50;;
38805;SDS011;25635;51.146;17.162;2023-01-20T07:01:19;133.20;;;70.20;;
38805;SDS011;25635;51.146;17.162;2023-01-20T07:03:51;119.50;;;64.40;;
38805;SDS011;25635;51.146;17.162;2023-01-20T07:08:51;140.40;;;67.70;;
38805;SDS011;25635;51.146;17.162;2023-01-20T07:11:18;132.80;;;69.70;;
38805;SDS011;25635;51.146;17.162;2023-01-20T07:13:45;128.60;;;67.30;;
38805;SDS011;25635;51.146;17.162;2023-01-20T07:16:12;124.30;;;63.70;;
38805;SDS011;25635;51.146;17.162;2023-01-20T07:18:39;128.70;;;63.10;;
38805;SDS011;25635;51.146;17.162;2023-01-20T07:21:07;138.40;;;64.50;;
38805;SDS011;25635;51.146;17.162;2023-01-20T07:23:36;124.50;;;62.50;;
38805;SDS011;25635;51.146;17.162;2023-01-20T07:26:04;120.80;;;61.30;;
38805;SDS011;25635;51.146;17.162;2023-01-20T07:28:33;120.90;;;60.20;;
38805;SDS011;25635;51.146;17.162;2023-01-20T07:31:08;125.10;;;62.30;;
38805;SDS011;25635;51.146;17.162;2023-01-20T07:33:36;136.40;;;66.60;;
38805;SDS011;25635;51.146;17.162;2023-01-20T07:36:03;144.80;;;74.30;;
38805;SDS011;25635;51.146;17.162;2023-01-20T07:38:32;155.90;;;75.10;;
38805;SDS011;25635;51.146;17.162;2023-01-20T07:41:00;139.30;;;72.10;;
38805;SDS011;25635;51.146;17.162;2023-01-20T07:43:29;136.50;;;69.80;;
38805;SDS011;25635;51.146;17.162;2023-01-20T07:46:00;144.20;;;72.50;;
38805;SDS011;25635;51.146;17.162;2023-01-20T07:48:29;137.30;;;73.40;;
38805;SDS011;25635;51.146;17.162;2023-01-20T07:50:58;143.10;;;71.20;;
38805;SDS011;25635;51.146;17.162;2023-01-20T07:53:31;155.70;;;78.20;;
38805;SDS011;25635;51.146;17.162;2023-01-20T07:56:04;183.40;;;82.10;;
38805;SDS011;25635;51.146;17.162;2023-01-20T07:58:33;187.50;;;89.20;;
38805;SDS011;25635;51.146;17.162;2023-01-20T08:03:37;187.20;;;92.80;;
38805;SDS011;25635;51.146;17.162;2023-01-20T08:06:05;190.50;;;91.20;;
38805;SDS011;25635;51.146;17.162;2023-01-20T08:08:33;185.30;;;92.30;;
38805;SDS011;25635;51.146;17.162;2023-01-20T08:11:01;167.60;;;84.50;;
38805;SDS011;25635;51.146;17.162;2023-01-20T08:13:29;158.70;;;81.00;;
38805;SDS011;25635;51.146;17.162;2023-01-20T08:16:03;160.80;;;78.30;;
38805;SDS011;25635;51.146;17.162;2023-01-20T08:18:31;174.90;;;83.60;;
38805;SDS011;25635;51.146;17.162;2023-01-20T08:21:00;152.20;;;77.10;;
38805;SDS011;25635;51.146;17.162;2023-01-20T08:23:33;146.90;;;71.20;;
38805;SDS011;25635;51.146;17.162;2023-01-20T08:26:05;152.70;;;75.70;;
38805;SDS011;25635;51.146;17.162;2023-01-20T08:28:33;137.70;;;69.20;;
38805;SDS011;25635;51.146;17.162;2023-01-20T08:31:05;128.90;;;66.80;;
38805;SDS011;25635;51.146;17.162;2023-01-20T08:33:34;131.50;;;65.40;;
38805;SDS011;25635;51.146;17.162;2023-01-20T08:36:08;124.40;;;62.40;;
38805;SDS011;25635;51.146;17.162;2023-01-20T08:38:35;134.20;;;66.10;;
38805;SDS011;25635;51.146;17.162;2023-01-20T08:41:06;139.70;;;68.70;;
38805;SDS011;25635;51.146;17.162;2023-01-20T08:43:38;114.60;;;59.10;;
38805;SDS011;25635;51.146;17.162;2023-01-20T08:46:06;120.80;;;59.90;;
38805;SDS011;25635;51.146;17.162;2023-01-20T08:48:35;105.40;;;54.80;;
38805;SDS011;25635;51.146;17.162;2023-01-20T08:51:04;112.50;;;56.80;;
38805;SDS011;25635;51.146;17.162;2023-01-20T08:53:32;124.20;;;62.00;;
38805;SDS011;25635;51.146;17.162;2023-01-20T08:56:00;123.90;;;64.80;;
38805;SDS011;25635;51.146;17.162;2023-01-20T08:58:28;123.70;;;63.30;;
38805;SDS011;25635;51.146;17.162;2023-01-20T09:00:55;130.60;;;63.80;;
38805;SDS011;25635;51.146;17.162;2023-01-20T09:03:22;137.90;;;68.20;;
38805;SDS011;25635;51.146;17.162;2023-01-20T09:05:50;124.50;;;66.20;;
38805;SDS011;25635;51.146;17.162;2023-01-20T09:08:17;116.00;;;61.40;;
38805;SDS011;25635;51.146;17.162;2023-01-20T09:10:45;121.00;;;60.50;;
38805;SDS011;25635;51.146;17.162;2023-01-20T09:13:11;117.90;;;61.00;;
38805;SDS011;25635;51.146;17.162;2023-01-20T09:15:38;117.60;;;61.80;;
38805;SDS011;25635;51.146;17.162;2023-01-20T09:18:05;113.00;;;59.70;;
38805;SDS011;25635;51.146;17.162;2023-01-20T09:20:32;124.20;;;61.10;;
38805;SDS011;25635;51.146;17.162;2023-01-20T09:23:00;114.10;;;59.80;;
38805;SDS011;25635;51.146;17.162;2023-01-20T09:25:28;104.70;;;55.70;;
38805;SDS011;25635;51.146;17.162;2023-01-20T09:27:55;111.30;;;58.10;;
38805;SDS011;25635;51.146;17.162;2023-01-20T09:30:26;103.80;;;58.40;;
38805;SDS011;25635;51.146;17.162;2023-01-20T09:32:53;110.00;;;58.30;;
38805;SDS011;25635;51.146;17.162;2023-01-20T09:35:21;123.70;;;63.50;;
38805;SDS011;25635;51.146;17.162;2023-01-20T09:37:48;118.20;;;61.90;;
38805;SDS011;25635;51.146;17.162;2023-01-20T09:40:34;119.50;;;63.00;;
38805;SDS011;25635;51.146;17.162;2023-01-20T09:43:34;124.10;;;62.50;;
38805;SDS011;25635;51.146;17.162;2023-01-20T09:49:39;119.30;;;58.20;;
38805;SDS011;25635;51.146;17.162;2023-01-20T09:52:34;118.60;;;60.70;;
38805;SDS011;25635;51.146;17.162;2023-01-20T09:58:37;111.20;;;58.50;;
38805;SDS011;25635;51.146;17.162;2023-01-20T10:01:14;106.70;;;58.80;;
38805;SDS011;25635;51.146;17.162;2023-01-20T10:03:53;110.80;;;60.10;;
38805;SDS011;25635;51.146;17.162;2023-01-20T10:06:26;115.40;;;61.10;;
38805;SDS011;25635;51.146;17.162;2023-01-20T10:09:02;111.30;;;60.60;;
38805;SDS011;25635;51.146;17.162;2023-01-20T10:11:37;114.60;;;60.50;;
38805;SDS011;25635;51.146;17.162;2023-01-20T10:14:11;107.70;;;60.20;;
38805;SDS011;25635;51.146;17.162;2023-01-20T10:25:17;101.10;;;53.50;;
38805;SDS011;25635;51.146;17.162;2023-01-20T10:27:55;96.90;;;52.10;;
38805;SDS011;25635;51.146;17.162;2023-01-20T10:30:30;98.40;;;52.30;;
38805;SDS011;25635;51.146;17.162;2023-01-20T10:33:22;102.10;;;54.40;;
38805;SDS011;25635;51.146;17.162;2023-01-20T10:35:54;109.30;;;55.90;;
38805;SDS011;25635;51.146;17.162;2023-01-20T10:43:36;100.60;;;54.20;;
38805;SDS011;25635;51.146;17.162;2023-01-20T10:51:43;110.70;;;56.20;;
38805;SDS011;25635;51.146;17.162;2023-01-20T10:54:33;107.10;;;54.80;;
38805;SDS011;25635;51.146;17.162;2023-01-20T10:57:12;109.40;;;58.10;;
38805;SDS011;25635;51.146;17.162;2023-01-20T11:02:15;100.20;;;54.00;;
38805;SDS011;25635;51.146;17.162;2023-01-20T11:04:48;105.30;;;55.90;;
38805;SDS011;25635;51.146;17.162;2023-01-20T11:07:20;127.70;;;64.40;;
38805;SDS011;25635;51.146;17.162;2023-01-20T11:09:47;120.30;;;64.60;;
38805;SDS011;25635;51.146;17.162;2023-01-20T11:12:15;116.00;;;62.50;;
38805;SDS011;25635;51.146;17.162;2023-01-20T11:14:45;116.30;;;63.50;;
38805;SDS011;25635;51.146;17.162;2023-01-20T11:17:17;109.70;;;60.20;;
38805;SDS011;25635;51.146;17.162;2023-01-20T11:19:47;102.70;;;56.40;;
38805;SDS011;25635;51.146;17.162;2023-01-20T11:22:34;99.50;;;55.40;;
38805;SDS011;25635;51.146;17.162;2023-01-20T11:25:03;99.00;;;53.70;;
38805;SDS011;25635;51.146;17.162;2023-01-20T11:27:34;95.40;;;50.90;;
38805;SDS011;25635;51.146;17.162;2023-01-20T11:30:14;92.40;;;51.90;;
38805;SDS011;25635;51.146;17.162;2023-01-20T11:33:06;84.50;;;47.10;;
38805;SDS011;25635;51.146;17.162;2023-01-20T11:36:01;86.00;;;46.70;;
38805;SDS011;25635;51.146;17.162;2023-01-20T11:38:29;91.50;;;48.40;;
38805;SDS011;25635;51.146;17.162;2023-01-20T11:40:58;91.30;;;50.60;;
38805;SDS011;25635;51.146;17.162;2023-01-20T11:43:33;96.40;;;53.30;;
38805;SDS011;25635;51.146;17.162;2023-01-20T11:46:09;94.00;;;53.30;;
38805;SDS011;25635;51.146;17.162;2023-01-20T11:49:15;90.30;;;52.40;;
38805;SDS011;25635;51.146;17.162;2023-01-20T11:51:49;89.70;;;50.10;;
38805;SDS011;25635;51.146;17.162;2023-01-20T11:54:23;95.50;;;52.10;;
38805;SDS011;25635;51.146;17.162;2023-01-20T11:56:59;83.50;;;49.20;;
38805;SDS011;25635;51.146;17.162;2023-01-20T11:59:35;92.30;;;51.70;;
38805;SDS011;25635;51.146;17.162;2023-01-20T12:02:21;98.70;;;51.80;;
38805;SDS011;25635;51.146;17.162;2023-01-20T12:07:40;89.70;;;50.30;;
38805;SDS011;25635;51.146;17.162;2023-01-20T12:10:12;88.70;;;50.40;;
38805;SDS011;25635;51.146;17.162;2023-01-20T12:12:44;92.20;;;53.20;;
38805;SDS011;25635;51.146;17.162;2023-01-20T12:15:26;95.60;;;53.30;;
38805;SDS011;25635;51.146;17.162;2023-01-20T12:18:11;94.10;;;52.70;;
38805;SDS011;25635;51.146;17.162;2023-01-20T12:20:46;88.50;;;49.30;;
38805;SDS011;25635;51.146;17.162;2023-01-20T12:23:31;91.60;;;53.10;;
38805;SDS011;25635;51.146;17.162;2023-01-20T12:26:14;86.10;;;48.70;;
38805;SDS011;25635;51.146;17.162;2023-01-20T12:31:25;82.20;;;48.20;;
38805;SDS011;25635;51.146;17.162;2023-01-20T12:33:58;89.20;;;48.10;;
38805;SDS011;25635;51.146;17.162;2023-01-20T12:44:49;90.00;;;51.40;;
38805;SDS011;25635;51.146;17.162;2023-01-20T13:12:30;93.70;;;52.60;;
38805;SDS011;25635;51.146;17.162;2023-01-20T13:20:30;102.80;;;55.90;;
38805;SDS011;25635;51.146;17.162;2023-01-20T13:22:58;100.30;;;57.60;;
38805;SDS011;25635;51.146;17.162;2023-01-20T13:25:29;76.40;;;44.90;;
38805;SDS011;25635;51.146;17.162;2023-01-20T13:27:57;74.70;;;41.80;;
38805;SDS011;25635;51.146;17.162;2023-01-20T13:33:14;62.20;;;35.40;;
38805;SDS011;25635;51.146;17.162;2023-01-20T13:36:22;59.30;;;34.40;;
38805;SDS011;25635;51.146;17.162;2023-01-20T13:41:52;57.00;;;34.80;;
38805;SDS011;25635;51.146;17.162;2023-01-20T13:44:24;61.50;;;34.30;;
38805;SDS011;25635;51.146;17.162;2023-01-20T13:46:51;60.00;;;36.30;;
38805;SDS011;25635;51.146;17.162;2023-01-20T13:49:21;60.20;;;33.90;;
38805;SDS011;25635;51.146;17.162;2023-01-20T13:51:51;56.70;;;33.50;;
38805;SDS011;25635;51.146;17.162;2023-01-20T13:59:53;54.50;;;32.30;;
38805;SDS011;25635;51.146;17.162;2023-01-20T14:02:22;52.00;;;30.90;;
38805;SDS011;25635;51.146;17.162;2023-01-20T14:04:51;49.80;;;30.10;;
38805;SDS011;25635;51.146;17.162;2023-01-20T14:09:55;45.40;;;25.50;;
38805;SDS011;25635;51.146;17.162;2023-01-20T14:12:24;36.10;;;21.70;;
38805;SDS011;25635;51.146;17.162;2023-01-20T14:14:52;36.80;;;21.70;;
38805;SDS011;25635;51.146;17.162;2023-01-20T14:17:21;36.30;;;21.60;;
38805;SDS011;25635;51.146;17.162;2023-01-20T14:19:50;38.70;;;21.90;;
38805;SDS011;25635;51.146;17.162;2023-01-20T14:22:23;35.30;;;21.60;;
38805;SDS011;25635;51.146;17.162;2023-01-20T14:24:52;34.00;;;21.90;;
38805;SDS011;25635;51.146;17.162;2023-01-20T14:29:55;39.10;;;23.20;;
38805;SDS011;25635;51.146;17.162;2023-01-20T14:32:26;43.90;;;24.80;;
38805;SDS011;25635;51.146;17.162;2023-01-20T14:34:54;40.10;;;24.50;;
38805;SDS011;25635;51.146;17.162;2023-01-20T14:39:51;37.90;;;22.30;;
38805;SDS011;25635;51.146;17.162;2023-01-20T14:42:20;37.00;;;21.60;;
38805;SDS011;25635;51.146;17.162;2023-01-20T14:44:48;33.30;;;22.00;;
38805;SDS011;25635;51.146;17.162;2023-01-20T14:47:17;36.00;;;22.50;;
38805;SDS011;25635;51.146;17.162;2023-01-20T14:49:46;37.60;;;23.30;;
38805;SDS011;25635;51.146;17.162;2023-01-20T14:52:25;37.60;;;23.20;;
38805;SDS011;25635;51.146;17.162;2023-01-20T14:54:54;46.00;;;25.80;;
38805;SDS011;25635;51.146;17.162;2023-01-20T15:00:22;52.60;;;29.70;;
38805;SDS011;25635;51.146;17.162;2023-01-20T15:05:41;48.00;;;28.30;;
38805;SDS011;25635;51.146;17.162;2023-01-20T15:08:24;44.90;;;27.20;;
38805;SDS011;25635;51.146;17.162;2023-01-20T15:13:46;42.80;;;29.10;;
38805;SDS011;25635;51.146;17.162;2023-01-20T15:16:43;39.50;;;27.80;;
38805;SDS011;25635;51.146;17.162;2023-01-20T15:21:42;35.80;;;23.30;;
38805;SDS011;25635;51.146;17.162;2023-01-20T15:24:21;43.20;;;25.20;;
38805;SDS011;25635;51.146;17.162;2023-01-20T15:26:54;38.30;;;23.60;;
38805;SDS011;25635;51.146;17.162;2023-01-20T15:29:24;38.80;;;22.60;;
38805;SDS011;25635;51.146;17.162;2023-01-20T15:31:53;34.00;;;21.10;;
38805;SDS011;25635;51.146;17.162;2023-01-20T15:34:21;37.80;;;21.60;;
38805;SDS011;25635;51.146;17.162;2023-01-20T15:36:49;38.70;;;23.40;;
38805;SDS011;25635;51.146;17.162;2023-01-20T15:39:19;34.90;;;22.40;;
38805;SDS011;25635;51.146;17.162;2023-01-20T15:41:47;46.60;;;26.50;;
38805;SDS011;25635;51.146;17.162;2023-01-20T15:44:19;43.30;;;26.50;;
38805;SDS011;25635;51.146;17.162;2023-01-20T15:46:50;52.10;;;30.10;;
38805;SDS011;25635;51.146;17.162;2023-01-20T15:49:17;54.70;;;33.40;;
38805;SDS011;25635;51.146;17.162;2023-01-20T15:51:45;59.40;;;33.40;;
38805;SDS011;25635;51.146;17.162;2023-01-20T15:54:12;63.40;;;32.80;;
38805;SDS011;25635;51.146;17.162;2023-01-20T15:56:39;62.10;;;32.80;;
38805;SDS011;25635;51.146;17.162;2023-01-20T15:59:11;53.60;;;28.20;;
38805;SDS011;25635;51.146;17.162;2023-01-20T16:01:43;45.90;;;25.50;;
38805;SDS011;25635;51.146;17.162;2023-01-20T16:04:15;46.60;;;25.50;;
38805;SDS011;25635;51.146;17.162;2023-01-20T16:06:42;50.80;;;26.50;;
38805;SDS011;25635;51.146;17.162;2023-01-20T16:09:18;49.50;;;28.10;;
38805;SDS011;25635;51.146;17.162;2023-01-20T16:11:50;45.40;;;26.50;;
38805;SDS011;25635;51.146;17.162;2023-01-20T16:14:17;42.60;;;25.40;;
38805;SDS011;25635;51.146;17.162;2023-01-20T16:16:44;46.50;;;28.80;;
38805;SDS011;25635;51.146;17.162;2023-01-20T16:19:11;45.80;;;27.80;;
38805;SDS011;25635;51.146;17.162;2023-01-20T16:21:39;52.30;;;29.80;;
38805;SDS011;25635;51.146;17.162;2023-01-20T16:24:06;52.10;;;30.50;;
38805;SDS011;25635;51.146;17.162;2023-01-20T16:26:33;52.90;;;30.90;;
38805;SDS011;25635;51.146;17.162;2023-01-20T16:29:00;53.50;;;30.30;;
38805;SDS011;25635;51.146;17.162;2023-01-20T16:31:27;54.40;;;31.80;;
38805;SDS011;25635;51.146;17.162;2023-01-20T16:33:54;57.20;;;33.70;;
38805;SDS011;25635;51.146;17.162;2023-01-20T16:36:22;61.00;;;33.20;;
38805;SDS011;25635;51.146;17.162;2023-01-20T16:38:49;63.90;;;35.30;;
38805;SDS011;25635;51.146;17.162;2023-01-20T16:41:24;68.40;;;37.60;;
38805;SDS011;25635;51.146;17.162;2023-01-20T16:43:53;64.30;;;37.10;;
38805;SDS011;25635;51.146;17.162;2023-01-20T16:46:21;63.40;;;35.50;;
38805;SDS011;25635;51.146;17.162;2023-01-20T16:48:53;66.60;;;36.50;;
38805;SDS011;25635;51.146;17.162;2023-01-20T16:51:25;67.70;;;37.70;;
38805;SDS011;25635;51.146;17.162;2023-01-20T16:53:53;75.10;;;40.40;;